createdAt,value
2022-08-18T00:01:15.829Z,9.27
2022-08-18T00:03:55.903Z,8.93
2022-08-18T00:06:59.903Z,9.68
2022-08-18T00:09:31.541Z,8.68
2022-08-18T00:12:00.706Z,9.77
2022-08-18T00:14:27.099Z,9.73
2022-08-18T00:16:54.578Z,8.90
2022-08-18T00:19:45.616Z,8.90
2022-08-18T00:22:14.625Z,9.75
2022-08-18T00:24:47.867Z,9.20
2022-08-18T00:27:17.104Z,9.38
2022-08-18T00:29:43.437Z,9.35
2022-08-18T00:32:19.488Z,9.90
2022-08-18T00:34:45.914Z,9.45
2022-08-18T00:37:12.313Z,9.32
2022-08-18T00:39:40.651Z,9.20
2022-08-18T00:42:29.030Z,9.35
2022-08-18T00:45:01.018Z,9.05
2022-08-18T00:47:42.078Z,10.15
2022-08-18T00:50:16.249Z,9.88
2022-08-18T00:52:49.703Z,8.85
2022-08-18T00:55:17.927Z,9.30
2022-08-18T00:57:44.473Z,10.00
2022-08-18T01:00:13.063Z,9.02
2022-08-18T01:02:44.494Z,9.57
2022-08-18T01:05:18.873Z,9.20
2022-08-18T01:07:47.788Z,8.98
2022-08-18T01:10:17.623Z,8.88
2022-08-18T01:12:47.064Z,8.75
2022-08-18T01:15:28.685Z,8.27
2022-08-18T01:18:23.052Z,8.77
2022-08-18T01:21:27.596Z,8.02
2022-08-18T01:23:55.865Z,7.97
2022-08-18T01:26:25.832Z,8.73
2022-08-18T01:28:53.886Z,9.00
2022-08-18T01:31:34.241Z,8.90
2022-08-18T01:34:01.123Z,8.07
2022-08-18T01:36:29.413Z,7.60
2022-08-18T01:38:56.745Z,7.45
2022-08-18T01:41:30.432Z,7.05
2022-08-18T01:43:59.267Z,7.65
2022-08-18T01:46:27.395Z,7.93
2022-08-18T01:48:53.848Z,7.20
2022-08-18T01:51:21.664Z,8.00
2022-08-18T01:54:06.158Z,7.43
2022-08-18T01:56:32.571Z,6.63
2022-08-18T01:58:58.951Z,6.78
2022-08-18T02:01:36.228Z,7.10
2022-08-18T02:04:33.277Z,7.18
2022-08-18T02:06:53.393Z,7.25
2022-08-18T02:09:23.727Z,6.82
2022-08-18T02:11:51.397Z,7.22
2022-08-18T02:14:25.063Z,7.00
2022-08-18T02:16:57.037Z,6.38
2022-08-18T02:19:33.197Z,7.00
2022-08-18T02:21:59.885Z,6.22
2022-08-18T02:24:26.266Z,6.45
2022-08-18T02:26:52.625Z,7.10
2022-08-18T02:29:18.951Z,6.35
2022-08-18T02:31:45.391Z,6.55
2022-08-18T02:34:11.750Z,6.05
2022-08-18T02:36:38.135Z,6.40
2022-08-18T02:39:04.551Z,6.00
2022-08-18T02:41:31.473Z,5.75
2022-08-18T02:43:58.377Z,6.38
2022-08-18T02:46:29.945Z,5.93
2022-08-18T02:48:57.850Z,5.97
2022-08-18T02:51:25.742Z,6.00
2022-08-18T02:53:53.442Z,5.47
2022-08-18T02:56:41.347Z,5.35
2022-08-18T02:59:20.954Z,5.32
2022-08-18T03:01:51.303Z,5.00
2022-08-18T03:04:26.622Z,5.93
2022-08-18T03:06:56.696Z,4.78
2022-08-18T03:09:24.200Z,5.38
2022-08-18T03:11:50.638Z,5.00
2022-08-18T03:14:17.039Z,4.88
2022-08-18T03:16:53.587Z,5.00
2022-08-18T03:19:25.987Z,5.45
2022-08-18T03:21:53.208Z,5.28
2022-08-18T03:24:22.934Z,5.28
2022-08-18T03:26:51.062Z,4.75
2022-08-18T03:29:17.515Z,4.90
2022-08-18T03:31:45.330Z,4.90
2022-08-18T03:34:12.884Z,5.00
2022-08-18T03:36:39.683Z,5.55
2022-08-18T03:39:10.791Z,5.45
2022-08-18T03:41:43.815Z,5.53
2022-08-18T03:44:26.619Z,4.78
2022-08-18T03:46:53.040Z,5.65
2022-08-18T03:49:20.866Z,5.13
2022-08-18T03:51:48.503Z,5.43
2022-08-18T03:54:17.444Z,5.43
2022-08-18T03:56:46.014Z,5.20
2022-08-18T03:59:17.739Z,5.05
2022-08-18T04:01:45.887Z,4.60
2022-08-18T04:04:15.854Z,5.22
2022-08-18T04:06:45.387Z,4.55
2022-08-18T04:09:14.838Z,4.88
2022-08-18T04:11:43.502Z,4.72
2022-08-18T04:14:13.227Z,4.78
2022-08-18T04:16:40.501Z,5.38
2022-08-18T04:19:08.775Z,5.10
2022-08-18T04:21:37.959Z,5.00
2022-08-18T04:24:05.418Z,4.88
2022-08-18T04:26:34.636Z,5.10
2022-08-18T04:29:01.622Z,4.97
2022-08-18T04:31:29.984Z,4.78
2022-08-18T04:33:58.603Z,4.57
2022-08-18T04:36:26.210Z,4.63
2022-08-18T04:38:52.952Z,4.50
2022-08-18T04:41:27.217Z,4.47
2022-08-18T04:43:55.570Z,5.13
2022-08-18T04:46:24.155Z,4.72
2022-08-18T04:48:50.759Z,4.85
2022-08-18T04:52:37.357Z,5.03
2022-08-18T04:54:07.199Z,4.30
2022-08-18T04:56:37.824Z,5.03
2022-08-18T04:59:09.880Z,5.80
2022-08-18T05:01:42.264Z,4.93
2022-08-18T05:04:09.902Z,4.80
2022-08-18T05:06:37.333Z,4.35
2022-08-18T05:09:07.244Z,4.50
2022-08-18T05:11:35.325Z,4.63
2022-08-18T05:14:04.749Z,4.50
2022-08-18T05:16:36.449Z,4.80
2022-08-18T05:19:15.991Z,4.63
2022-08-18T05:21:45.609Z,5.20
2022-08-18T05:24:17.605Z,5.15
2022-08-18T05:26:44.445Z,4.70
2022-08-18T05:29:18.572Z,4.75
2022-08-18T05:31:47.576Z,4.88
2022-08-18T05:34:14.041Z,4.95
2022-08-18T05:36:49.339Z,4.40
2022-08-18T05:39:23.844Z,5.00
2022-08-18T05:41:55.540Z,5.20
2022-08-18T05:44:28.791Z,5.22
2022-08-18T05:47:07.428Z,4.75
2022-08-18T05:49:35.817Z,4.97
2022-08-18T05:52:37.280Z,4.90
2022-08-18T05:55:45.940Z,5.18
2022-08-18T05:58:21.952Z,5.28
2022-08-18T06:00:59.608Z,5.10
2022-08-18T06:03:46.468Z,5.28
2022-08-18T06:06:26.255Z,5.00
2022-08-18T06:08:57.075Z,5.05
2022-08-18T06:11:24.125Z,5.07
2022-08-18T06:13:51.704Z,5.22
2022-08-18T06:16:33.784Z,5.57
2022-08-18T06:19:14.992Z,6.63
2022-08-18T06:22:08.422Z,6.32
2022-08-18T06:24:59.420Z,6.30
2022-08-18T06:27:55.765Z,6.43
2022-08-18T06:30:40.840Z,6.38
2022-08-18T06:33:22.239Z,6.80
2022-08-18T06:35:52.053Z,6.20
2022-08-18T06:38:39.929Z,6.45
2022-08-18T06:41:09.392Z,7.07
2022-08-18T06:44:03.177Z,6.53
2022-08-18T06:46:44.505Z,6.28
2022-08-18T06:49:19.251Z,6.25
2022-08-18T06:51:45.809Z,5.68
2022-08-18T06:54:21.260Z,6.68
2022-08-18T06:56:50.920Z,5.90
2022-08-18T06:59:28.144Z,5.88
2022-08-18T07:02:01.443Z,5.57
2022-08-18T07:04:44.329Z,6.35
2022-08-18T07:07:40.147Z,6.47
2022-08-18T07:10:30.347Z,6.03
2022-08-18T07:13:08.492Z,6.85
2022-08-18T07:15:35.676Z,6.32
2022-08-18T07:18:09.801Z,6.40
2022-08-18T07:20:49.223Z,6.72
2022-08-18T07:23:34.642Z,7.15
2022-08-18T07:31:24.849Z,7.03
2022-08-18T07:33:58.823Z,6.43
2022-08-18T07:36:29.142Z,6.90
2022-08-18T07:39:03.567Z,6.15
2022-08-18T07:41:48.111Z,6.50
2022-08-18T07:44:34.754Z,6.70
2022-08-18T07:47:15.860Z,6.97
2022-08-18T07:50:13.593Z,7.07
2022-08-18T07:52:52.379Z,7.70
2022-08-18T07:55:31.852Z,6.35
2022-08-18T07:58:15.716Z,6.35
2022-08-18T08:00:59.895Z,6.85
2022-08-18T08:03:44.436Z,7.85
2022-08-18T08:06:23.713Z,6.75
2022-08-18T08:08:54.907Z,6.70
2022-08-18T08:11:58.496Z,6.60
2022-08-18T08:14:46.593Z,7.05
2022-08-18T08:17:24.879Z,7.38
2022-08-18T08:20:18.515Z,7.00
2022-08-18T08:22:56.922Z,6.80
2022-08-18T08:25:46.357Z,6.57
2022-08-18T08:28:45.961Z,7.65
2022-08-18T08:31:36.323Z,7.25
2022-08-18T08:34:17.338Z,7.05
2022-08-18T08:36:46.912Z,6.72
2022-08-18T08:39:20.482Z,6.82
2022-08-18T08:42:29.152Z,8.15
2022-08-18T08:45:00.183Z,9.13
2022-08-18T08:47:41.272Z,7.22
2022-08-18T08:50:16.688Z,8.07
2022-08-18T08:52:58.852Z,8.20
2022-08-18T08:55:29.938Z,8.40
2022-08-18T08:58:08.513Z,8.40
2022-08-18T09:00:36.739Z,8.30
2022-08-18T09:03:30.400Z,8.32
2022-08-18T09:05:59.891Z,9.63
2022-08-18T09:08:58.624Z,7.70
2022-08-18T09:11:43.606Z,9.25
2022-08-18T09:14:24.037Z,10.63
2022-08-18T09:17:24.676Z,9.50
2022-08-18T09:20:23.272Z,9.40
2022-08-18T09:23:08.793Z,8.95
2022-08-18T09:25:38.038Z,8.38
2022-08-18T09:28:17.972Z,8.90
2022-08-18T09:34:14.396Z,9.55
2022-08-18T09:37:17.390Z,9.32
2022-08-18T09:40:13.980Z,9.35
2022-08-18T09:42:50.639Z,10.23
2022-08-18T09:45:41.188Z,10.02
2022-08-18T09:51:15.653Z,9.82
2022-08-18T09:53:46.816Z,10.68
2022-08-18T09:56:15.251Z,10.68
2022-08-18T09:59:12.997Z,10.40
2022-08-18T10:01:41.202Z,10.23
2022-08-18T10:04:13.758Z,9.23
2022-08-18T10:06:48.339Z,9.18
2022-08-18T10:09:44.948Z,9.68
2022-08-18T10:12:27.506Z,10.25
2022-08-18T10:15:33.164Z,9.57
2022-08-18T10:18:16.328Z,11.20
2022-08-18T10:20:57.593Z,9.10
2022-08-18T10:23:58.453Z,10.07
2022-08-18T10:26:55.394Z,9.40
2022-08-18T10:29:25.853Z,10.15
2022-08-18T10:31:55.236Z,9.05
2022-08-18T10:34:52.463Z,12.65
2022-08-18T10:37:26.369Z,10.25
2022-08-18T10:39:59.659Z,10.15
2022-08-18T10:42:33.660Z,10.20
2022-08-18T10:45:11.754Z,10.32
2022-08-18T10:47:38.234Z,9.35
2022-08-18T10:50:09.669Z,9.35
2022-08-18T10:53:39.727Z,9.93
2022-08-18T10:56:16.712Z,11.10
2022-08-18T10:59:08.194Z,8.18
2022-08-18T11:02:09.544Z,11.75
2022-08-18T11:04:44.069Z,10.43
2022-08-18T11:07:18.170Z,9.32
2022-08-18T11:09:57.114Z,9.90
2022-08-18T11:12:55.857Z,8.75
2022-08-18T11:15:38.290Z,12.45
2022-08-18T11:18:30.830Z,11.07
2022-08-18T11:21:31.899Z,9.68
2022-08-18T11:24:10.005Z,11.95
2022-08-18T11:29:40.745Z,11.70
2022-08-18T11:32:17.833Z,13.73
2022-08-18T11:34:53.177Z,12.75
2022-08-18T11:37:53.342Z,12.23
2022-08-18T11:41:02.186Z,12.35
2022-08-18T11:43:09.845Z,13.13
2022-08-18T11:45:53.906Z,12.70
2022-08-18T11:48:36.209Z,13.63
2022-08-18T11:51:25.369Z,12.07
2022-08-18T11:54:00.071Z,11.90
2022-08-18T11:59:52.539Z,12.00
2022-08-18T12:02:20.792Z,12.15
2022-08-18T12:04:52.921Z,12.45
2022-08-18T12:07:31.896Z,12.23
2022-08-18T12:10:19.340Z,10.00
2022-08-18T12:12:53.547Z,12.02
2022-08-18T12:15:23.815Z,9.27
2022-08-18T12:20:37.903Z,11.00
2022-08-18T12:23:05.285Z,11.35
2022-08-18T12:25:32.233Z,10.82
2022-08-18T12:27:58.606Z,9.20
2022-08-18T12:30:24.994Z,8.98
2022-08-18T12:35:41.827Z,9.82
2022-08-18T12:38:13.898Z,8.10
2022-08-18T12:40:41.754Z,7.57
2022-08-18T12:43:08.953Z,7.72
2022-08-18T12:45:37.884Z,8.02
2022-08-18T12:48:05.105Z,7.80
2022-08-18T12:50:41.113Z,8.30
2022-08-18T12:53:17.001Z,8.57
2022-08-18T12:58:31.131Z,7.00
2022-08-18T13:01:03.934Z,8.70
2022-08-18T13:03:30.452Z,8.00
2022-08-18T13:06:02.273Z,6.78
2022-08-18T13:08:33.714Z,6.72
2022-08-18T13:11:21.329Z,6.82
2022-08-18T13:13:53.093Z,6.22
2022-08-18T13:16:30.822Z,7.18
2022-08-18T13:19:06.250Z,5.93
2022-08-18T13:21:41.094Z,5.75
2022-08-18T13:24:09.344Z,6.35
2022-08-18T13:26:41.566Z,5.57
2022-08-18T13:29:10.099Z,6.05
2022-08-18T13:31:38.021Z,4.57
2022-08-18T13:34:11.632Z,4.60
2022-08-18T13:36:46.105Z,5.28
2022-08-18T13:39:16.978Z,5.22
2022-08-18T13:41:45.514Z,4.72
2022-08-18T13:44:15.059Z,4.80
2022-08-18T13:46:46.676Z,4.45
2022-08-18T13:49:23.448Z,4.47
2022-08-18T13:51:52.091Z,4.95
2022-08-18T13:54:31.249Z,5.30
2022-08-18T13:56:58.617Z,5.53
2022-08-18T13:59:26.759Z,5.28
2022-08-18T14:01:53.455Z,5.35
2022-08-18T14:04:22.842Z,5.03
2022-08-18T14:06:56.933Z,3.67
2022-08-18T14:09:36.284Z,3.45
2022-08-18T14:12:28.207Z,3.70
2022-08-18T14:14:57.614Z,4.10
2022-08-18T14:17:25.858Z,4.82
2022-08-18T14:20:14.882Z,3.97
2022-08-18T14:23:00.813Z,4.97
2022-08-18T14:25:45.984Z,5.30
2022-08-18T14:28:12.628Z,4.85
2022-08-18T14:30:39.825Z,5.50
2022-08-18T14:33:11.583Z,5.90
2022-08-18T14:36:06.622Z,5.40
2022-08-18T14:38:24.840Z,5.72
2022-08-18T14:40:51.691Z,5.50
2022-08-18T14:43:24.864Z,5.65
2022-08-18T14:45:53.572Z,6.45
2022-08-18T14:48:27.288Z,6.10
2022-08-18T14:50:56.084Z,5.70
2022-08-18T14:53:26.443Z,5.93
2022-08-18T14:55:54.606Z,5.55
2022-08-18T14:58:27.687Z,5.90
2022-08-18T15:00:56.770Z,5.60
2022-08-18T15:03:28.388Z,5.50
2022-08-18T15:06:00.353Z,5.35
2022-08-18T15:08:27.317Z,5.57
2022-08-18T15:10:55.875Z,6.10
2022-08-18T15:13:26.358Z,5.95
2022-08-18T15:15:53.551Z,6.05
2022-08-18T15:18:22.545Z,6.25
2022-08-18T15:21:19.354Z,6.00
2022-08-18T15:24:05.034Z,6.53
2022-08-18T15:29:11.404Z,5.88
2022-08-18T15:32:01.960Z,6.30
2022-08-18T15:34:28.644Z,6.60
2022-08-18T15:36:56.864Z,6.40
2022-08-18T15:39:24.345Z,6.95
2022-08-18T15:44:19.819Z,7.32
2022-08-18T15:46:51.245Z,7.35
2022-08-18T15:49:21.751Z,8.00
2022-08-18T15:51:49.418Z,7.25
2022-08-18T15:54:16.263Z,7.07
2022-08-18T15:56:46.296Z,7.40
2022-08-18T15:59:33.022Z,9.70
2022-08-18T16:02:05.463Z,9.38
2022-08-18T16:04:31.865Z,10.30
2022-08-18T16:06:58.216Z,9.65
2022-08-18T16:09:24.563Z,9.40
2022-08-18T16:11:50.927Z,9.45
2022-08-18T16:14:17.251Z,9.60
2022-08-18T16:16:43.626Z,9.25
2022-08-18T16:19:09.972Z,8.60
2022-08-18T16:21:39.762Z,8.57
2022-08-18T16:24:07.138Z,9.68
2022-08-18T16:26:33.488Z,9.23
2022-08-18T16:29:01.789Z,10.13
2022-08-18T16:31:29.295Z,8.90
2022-08-18T16:33:57.651Z,9.02
2022-08-18T16:36:27.775Z,8.57
2022-08-18T16:38:56.159Z,9.05
2022-08-18T16:41:25.881Z,8.95
2022-08-18T16:43:52.298Z,7.95
2022-08-18T16:46:26.875Z,8.93
2022-08-18T16:48:55.227Z,7.93
2022-08-18T16:51:24.393Z,8.30
2022-08-18T16:53:52.899Z,8.38
2022-08-18T16:56:23.564Z,8.52
2022-08-18T16:59:09.122Z,8.90
2022-08-18T17:01:54.276Z,9.02
2022-08-18T17:04:24.911Z,8.40
2022-08-18T17:06:51.506Z,8.02
2022-08-18T17:09:19.198Z,7.90
2022-08-18T17:11:51.726Z,8.32
2022-08-18T17:14:20.794Z,8.13
2022-08-18T17:16:48.686Z,8.63
2022-08-18T17:19:15.211Z,8.93
2022-08-18T17:21:41.725Z,9.27
2022-08-18T17:24:11.439Z,9.00
2022-08-18T17:26:44.420Z,8.57
2022-08-18T17:29:18.860Z,8.68
2022-08-18T17:31:52.686Z,9.02
2022-08-18T17:34:22.739Z,9.50
2022-08-18T17:36:54.979Z,9.63
2022-08-18T17:39:27.565Z,9.27
2022-08-18T17:42:12.676Z,9.18
2022-08-18T17:44:52.456Z,9.55
2022-08-18T17:47:27.000Z,9.07
2022-08-18T17:50:27.253Z,9.68
2022-08-18T17:53:01.392Z,9.70
2022-08-18T17:55:39.293Z,9.05
2022-08-18T17:58:16.255Z,8.43
2022-08-18T18:00:42.617Z,8.93
2022-08-18T18:03:12.718Z,8.60
2022-08-18T18:05:43.430Z,7.50
2022-08-18T18:08:10.582Z,9.05
2022-08-18T18:11:03.982Z,8.73
2022-08-18T18:13:32.582Z,8.30
2022-08-18T18:16:23.239Z,7.90
2022-08-18T18:19:00.026Z,8.32
2022-08-18T18:22:00.556Z,8.10
2022-08-18T18:24:15.540Z,7.90
2022-08-18T18:26:45.848Z,7.82
2022-08-18T18:29:37.708Z,8.02
2022-08-18T18:32:38.308Z,7.57
2022-08-18T18:35:27.093Z,8.00
2022-08-18T18:38:01.581Z,8.07
2022-08-18T18:40:53.207Z,7.13
2022-08-18T18:43:21.864Z,7.88
2022-08-18T18:46:27.250Z,7.68
2022-08-18T18:48:53.782Z,7.75
2022-08-18T18:51:41.702Z,7.63
2022-08-18T18:54:49.574Z,7.78
2022-08-18T18:57:55.307Z,7.30
2022-08-18T19:00:59.009Z,7.15
2022-08-18T19:03:52.961Z,7.60
2022-08-18T19:06:29.231Z,7.18
2022-08-18T19:09:08.390Z,7.00
2022-08-18T19:11:40.962Z,7.13
2022-08-18T19:14:17.468Z,7.07
2022-08-18T19:17:07.517Z,7.82
2022-08-18T19:19:44.502Z,6.55
2022-08-18T19:22:19.659Z,7.72
2022-08-18T19:24:58.024Z,6.90
2022-08-18T19:27:31.863Z,7.30
2022-08-18T19:30:03.170Z,7.10
2022-08-18T19:32:37.614Z,7.40
2022-08-18T19:35:12.143Z,7.40
2022-08-18T19:40:24.143Z,7.13
2022-08-18T19:42:58.645Z,7.03
2022-08-18T19:45:36.270Z,6.70
2022-08-18T19:48:13.092Z,7.18
2022-08-18T19:51:08.243Z,6.90
2022-08-18T19:54:04.347Z,8.30
2022-08-18T19:56:56.155Z,7.45
2022-08-18T19:59:50.959Z,8.13
2022-08-18T20:02:20.750Z,8.27
2022-08-18T20:05:08.964Z,7.97
2022-08-18T20:07:49.012Z,8.10
2022-08-18T20:10:33.910Z,8.20
2022-08-18T20:13:32.480Z,8.20
2022-08-18T20:16:01.791Z,8.32
2022-08-18T20:18:35.424Z,8.13
2022-08-18T20:21:13.829Z,7.53
2022-08-18T20:24:05.847Z,8.18
2022-08-18T20:26:35.086Z,7.97
2022-08-18T20:29:02.158Z,8.15
2022-08-18T20:31:50.437Z,7.90
2022-08-18T20:34:20.816Z,7.63
2022-08-18T20:36:48.401Z,8.07
2022-08-18T20:39:41.910Z,8.57
2022-08-18T20:42:20.456Z,8.18
2022-08-18T20:44:49.981Z,8.77
2022-08-18T20:47:25.646Z,8.20
2022-08-18T20:50:22.482Z,8.27
2022-08-18T20:52:58.164Z,8.90
2022-08-18T20:55:30.803Z,7.82
2022-08-18T20:58:05.185Z,9.20
2022-08-18T21:00:36.437Z,8.18
2022-08-18T21:03:10.691Z,8.13
2022-08-18T21:05:39.883Z,8.40
2022-08-18T21:08:19.546Z,8.27
2022-08-18T21:10:51.095Z,8.23
2022-08-18T21:13:40.483Z,8.65
2022-08-18T21:16:38.819Z,8.88
2022-08-18T21:19:40.013Z,8.98
2022-08-18T21:22:06.421Z,8.48
2022-08-18T21:24:35.749Z,8.73
2022-08-18T21:27:26.251Z,8.90
2022-08-18T21:29:56.461Z,9.18
2022-08-18T21:32:36.477Z,8.60
2022-08-18T21:35:18.816Z,9.13
2022-08-18T21:38:09.318Z,9.13
2022-08-18T21:40:43.355Z,9.95
2022-08-18T21:43:12.091Z,8.80
2022-08-18T21:45:47.793Z,9.05
2022-08-18T21:48:15.009Z,8.93
2022-08-18T21:50:50.245Z,8.90
2022-08-18T21:53:22.118Z,9.05
2022-08-18T21:55:51.675Z,9.68
2022-08-18T21:58:33.966Z,9.10
2022-08-18T22:01:14.698Z,9.27
2022-08-18T22:04:16.504Z,8.73
2022-08-18T22:06:48.491Z,9.25
2022-08-18T22:09:38.496Z,8.95
2022-08-18T22:12:47.295Z,9.57
2022-08-18T22:15:25.603Z,9.30
2022-08-18T22:18:27.206Z,9.88
2022-08-18T22:20:58.724Z,9.07
2022-08-18T22:23:57.519Z,9.85
2022-08-18T22:26:32.622Z,9.63
2022-08-18T22:29:17.742Z,8.93
2022-08-18T22:31:47.063Z,9.27
2022-08-18T22:34:17.349Z,9.38
2022-08-18T22:36:53.680Z,8.95
2022-08-18T22:39:37.456Z,9.10
2022-08-18T22:42:04.840Z,10.23
2022-08-18T22:44:31.274Z,9.18
2022-08-18T22:46:58.200Z,9.70
2022-08-18T22:49:25.154Z,9.40
2022-08-18T22:51:54.190Z,9.95
2022-08-18T22:54:23.012Z,9.50
2022-08-18T22:56:53.925Z,9.90
2022-08-18T22:59:23.189Z,9.57
2022-08-18T23:01:51.052Z,9.30
2022-08-18T23:04:20.327Z,9.57
2022-08-18T23:06:51.870Z,8.95
2022-08-18T23:09:28.239Z,9.73
2022-08-18T23:12:00.637Z,8.77
2022-08-18T23:14:28.147Z,9.30
2022-08-18T23:16:54.503Z,9.85
2022-08-18T23:19:21.441Z,9.70
2022-08-18T23:21:48.578Z,9.40
2022-08-18T23:24:21.465Z,9.35
2022-08-18T23:26:49.226Z,9.55
2022-08-18T23:29:15.934Z,10.60
2022-08-18T23:31:44.997Z,10.15
2022-08-18T23:34:14.687Z,10.25
2022-08-18T23:36:45.380Z,11.18
2022-08-18T23:39:13.519Z,9.95
2022-08-18T23:41:39.990Z,10.38
2022-08-18T23:44:06.619Z,10.57
2022-08-18T23:46:33.516Z,10.38
2022-08-18T23:49:02.313Z,10.35
2022-08-18T23:51:38.472Z,10.05
2022-08-18T23:54:11.988Z,10.07
2022-08-18T23:56:38.494Z,9.85
2022-08-18T23:59:07.023Z,10.98
